createdAt,value
2023-03-29T00:00:13.098Z,101556.63
2023-03-29T00:02:48.609Z,101575.28
2023-03-29T00:05:17.421Z,101577.84
2023-03-29T00:07:46.762Z,101583.00
2023-03-29T00:10:15.924Z,101576.84
2023-03-29T00:12:44.799Z,101567.94
2023-03-29T00:15:11.712Z,101578.47
2023-03-29T00:17:40.836Z,101571.41
2023-03-29T00:20:10.379Z,101569.56
2023-03-29T00:22:39.875Z,101561.94
2023-03-29T00:25:10.630Z,101560.25
2023-03-29T00:27:37.502Z,101555.88
2023-03-29T00:30:06.363Z,101555.06
2023-03-29T00:32:33.915Z,101558.47
2023-03-29T00:35:05.296Z,101551.53
2023-03-29T00:37:32.156Z,101551.47
2023-03-29T00:39:59.261Z,101539.03
2023-03-29T00:42:28.491Z,101531.13
2023-03-29T00:45:10.010Z,101539.22
2023-03-29T00:47:43.792Z,101535.66
2023-03-29T00:50:18.505Z,101517.81
2023-03-29T00:52:53.758Z,101539.94
2023-03-29T00:55:24.024Z,101534.81
2023-03-29T00:57:58.577Z,101529.53
2023-03-29T01:00:32.589Z,101532.97
2023-03-29T01:03:02.259Z,101523.44
2023-03-29T01:05:39.298Z,101518.22
2023-03-29T01:08:11.501Z,101521.72
2023-03-29T01:10:51.564Z,101503.78
2023-03-29T01:13:27.278Z,101532.16
2023-03-29T01:15:56.570Z,101526.94
2023-03-29T01:18:25.576Z,101522.53
2023-03-29T01:21:16.375Z,101511.19
2023-03-29T01:23:46.219Z,101507.63
2023-03-29T01:26:21.965Z,101498.97
2023-03-29T01:28:59.722Z,101472.84
2023-03-29T01:31:32.922Z,101510.22
2023-03-29T01:34:10.794Z,101520.63
2023-03-29T01:36:49.480Z,101515.28
2023-03-29T01:39:16.531Z,101523.25
2023-03-29T01:42:01.183Z,101517.16
2023-03-29T01:44:35.456Z,101517.19
2023-03-29T01:47:11.339Z,101505.97
2023-03-29T01:49:51.412Z,101512.97
2023-03-29T01:52:42.127Z,101500.00
2023-03-29T01:55:29.957Z,101507.81
2023-03-29T01:57:58.486Z,101495.50
2023-03-29T02:00:27.871Z,101498.97
2023-03-29T02:03:00.389Z,101484.75
2023-03-29T02:05:32.572Z,101497.34
2023-03-29T02:08:05.336Z,101476.19
2023-03-29T02:10:36.939Z,101489.59
2023-03-29T02:13:04.851Z,101465.78
2023-03-29T02:15:31.462Z,101477.47
2023-03-29T02:17:58.331Z,101462.53
2023-03-29T02:20:27.444Z,101475.78
2023-03-29T02:23:17.519Z,101476.66
2023-03-29T02:25:46.716Z,101454.34
2023-03-29T02:28:14.227Z,101475.88
2023-03-29T02:30:47.342Z,101474.22
2023-03-29T02:33:27.567Z,101462.00
2023-03-29T02:36:29.546Z,101473.25
2023-03-29T02:38:59.462Z,101480.91
2023-03-29T02:41:26.949Z,101463.06
2023-03-29T02:43:58.588Z,101474.59
2023-03-29T02:46:26.260Z,101466.78
2023-03-29T02:48:59.602Z,101445.25
2023-03-29T02:51:32.789Z,101467.69
2023-03-29T02:54:03.715Z,101467.63
2023-03-29T02:56:30.384Z,101466.78
2023-03-29T02:58:57.006Z,101475.44
2023-03-29T03:01:26.281Z,101470.31
2023-03-29T03:03:53.049Z,101466.53
2023-03-29T03:06:21.351Z,101458.72
2023-03-29T03:08:52.770Z,101471.19
2023-03-29T03:11:21.596Z,101466.78
2023-03-29T03:13:51.716Z,101434.78
2023-03-29T03:16:20.761Z,101454.31
2023-03-29T03:18:48.752Z,101446.66
2023-03-29T03:21:15.374Z,101416.97
2023-03-29T03:23:42.236Z,101421.41
2023-03-29T03:26:08.986Z,101404.78
2023-03-29T03:28:35.661Z,101413.63
2023-03-29T03:31:04.703Z,101411.88
2023-03-29T03:33:31.392Z,101391.41
2023-03-29T03:36:02.939Z,101410.16
2023-03-29T03:38:30.231Z,101409.16
2023-03-29T03:41:01.826Z,101407.47
2023-03-29T03:43:32.061Z,101410.88
2023-03-29T03:45:58.737Z,101408.03
2023-03-29T03:48:25.792Z,101411.69
2023-03-29T03:50:54.476Z,101412.53
2023-03-29T03:53:24.716Z,101410.66
2023-03-29T03:55:53.395Z,101416.72
2023-03-29T03:58:20.165Z,101414.88
2023-03-29T04:00:53.541Z,101423.63
2023-03-29T04:03:20.587Z,101415.69
2023-03-29T04:05:47.980Z,101400.72
2023-03-29T04:08:15.133Z,101414.09
2023-03-29T04:10:52.219Z,101409.72
2023-03-29T04:13:22.551Z,101408.13
2023-03-29T04:15:49.962Z,101410.00
2023-03-29T04:18:19.242Z,101371.16
2023-03-29T04:20:48.156Z,101415.19
2023-03-29T04:23:16.125Z,101416.88
2023-03-29T04:25:45.230Z,101401.97
2023-03-29T04:28:12.807Z,101387.38
2023-03-29T04:30:39.400Z,101390.88
2023-03-29T04:33:06.103Z,101378.50
2023-03-29T04:35:33.658Z,101371.59
2023-03-29T04:38:00.473Z,101364.44
2023-03-29T04:40:29.220Z,101387.00
2023-03-29T04:42:58.082Z,101391.41
2023-03-29T04:45:25.310Z,101392.19
2023-03-29T04:47:54.103Z,101393.16
2023-03-29T04:50:28.184Z,101369.25
2023-03-29T04:52:57.455Z,101387.00
2023-03-29T04:55:24.040Z,101407.19
2023-03-29T04:57:51.324Z,101389.75
2023-03-29T05:00:20.383Z,101378.94
2023-03-29T05:02:47.556Z,101390.47
2023-03-29T05:05:15.548Z,101381.09
2023-03-29T05:07:45.289Z,101382.19
2023-03-29T05:10:11.921Z,101374.31
2023-03-29T05:12:38.716Z,101373.50
2023-03-29T05:15:06.036Z,101371.78
2023-03-29T05:17:32.790Z,101370.13
2023-03-29T05:19:59.431Z,101354.13
2023-03-29T05:22:29.760Z,101370.25
2023-03-29T05:24:57.664Z,101366.81
2023-03-29T05:27:24.814Z,101370.31
2023-03-29T05:29:53.519Z,101365.84
2023-03-29T05:32:23.045Z,101361.56
2023-03-29T05:34:50.349Z,101366.00
2023-03-29T05:37:17.544Z,101370.38
2023-03-29T05:39:44.246Z,101363.53
2023-03-29T05:42:13.729Z,101347.13
2023-03-29T05:44:40.561Z,101347.13
2023-03-29T05:47:07.624Z,101350.63
2023-03-29T05:49:34.351Z,101339.31
2023-03-29T05:52:01.124Z,101334.75
2023-03-29T05:54:27.748Z,101340.16
2023-03-29T05:56:56.760Z,101325.63
2023-03-29T05:59:24.414Z,101335.34
2023-03-29T06:01:52.076Z,101339.91
2023-03-29T06:04:19.039Z,101338.19
2023-03-29T06:06:48.679Z,101317.84
2023-03-29T06:09:15.682Z,101340.16
2023-03-29T06:11:42.266Z,101329.69
2023-03-29T06:14:08.930Z,101331.53
2023-03-29T06:16:36.503Z,101319.84
2023-03-29T06:19:03.226Z,101322.31
2023-03-29T06:21:30.409Z,101303.59
2023-03-29T06:24:00.260Z,101301.91
2023-03-29T06:26:29.544Z,101301.97
2023-03-29T06:28:56.413Z,101317.84
2023-03-29T06:31:23.292Z,101321.38
2023-03-29T06:33:52.029Z,101333.69
2023-03-29T06:36:20.261Z,101322.84
2023-03-29T06:38:47.291Z,101316.56
2023-03-29T06:41:14.912Z,101327.03
2023-03-29T06:43:42.064Z,101347.25
2023-03-29T06:46:12.428Z,101339.34
2023-03-29T06:48:42.948Z,101315.44
2023-03-29T06:51:09.750Z,101351.09
2023-03-29T06:53:36.788Z,101328.41
2023-03-29T06:56:09.462Z,101317.13
2023-03-29T06:58:39.232Z,101302.16
2023-03-29T07:01:07.180Z,101323.41
2023-03-29T07:03:39.509Z,101324.50
2023-03-29T07:06:10.204Z,101285.53
2023-03-29T07:08:43.521Z,101325.44
2023-03-29T07:11:12.686Z,101327.16
2023-03-29T07:13:43.127Z,101322.75
2023-03-29T07:16:12.976Z,101319.38
2023-03-29T07:18:44.329Z,101300.50
2023-03-29T07:21:12.810Z,101339.47
2023-03-29T07:23:40.810Z,101317.78
2023-03-29T07:26:14.700Z,101323.09
2023-03-29T07:28:55.482Z,101310.28
2023-03-29T07:31:22.170Z,101296.31
2023-03-29T07:33:53.578Z,101279.84
2023-03-29T07:36:22.675Z,101286.06
2023-03-29T07:38:50.288Z,101284.66
2023-03-29T07:41:19.400Z,101279.41
2023-03-29T07:43:50.199Z,101274.25
2023-03-29T07:46:19.742Z,101273.47
2023-03-29T07:48:46.626Z,101225.00
2023-03-29T07:51:13.407Z,101269.50
2023-03-29T07:53:40.082Z,101271.50
2023-03-29T07:56:07.164Z,101272.44
2023-03-29T07:58:36.226Z,101274.38
2023-03-29T08:01:03.855Z,101266.63
2023-03-29T08:03:30.792Z,101272.78
2023-03-29T08:06:00.220Z,101273.03
2023-03-29T08:08:26.854Z,101244.97
2023-03-29T08:10:54.460Z,101260.00
2023-03-29T08:13:21.402Z,101251.34
2023-03-29T08:15:48.820Z,101272.56
2023-03-29T08:18:15.641Z,101258.66
2023-03-29T08:20:42.639Z,101242.03
2023-03-29T08:23:09.694Z,101274.63
2023-03-29T08:25:36.669Z,101259.75
2023-03-29T08:28:03.753Z,101253.00
2023-03-29T08:30:33.239Z,101255.66
2023-03-29T08:32:59.951Z,101246.19
2023-03-29T08:35:26.686Z,101233.00
2023-03-29T08:37:55.779Z,101227.88
2023-03-29T08:40:27.294Z,101229.94
2023-03-29T08:43:14.368Z,101239.84
2023-03-29T08:46:02.296Z,101252.97
2023-03-29T08:48:34.860Z,101242.53
2023-03-29T08:51:29.950Z,101239.06
2023-03-29T08:54:17.929Z,101238.19
2023-03-29T08:56:47.501Z,101224.28
2023-03-29T08:59:28.610Z,101203.44
2023-03-29T09:01:58.825Z,101202.81
2023-03-29T09:04:31.747Z,101187.78
2023-03-29T09:07:03.168Z,101195.03
2023-03-29T09:09:33.451Z,101210.00
2023-03-29T09:12:09.053Z,101208.25
2023-03-29T09:14:54.389Z,101204.72
2023-03-29T09:17:39.599Z,101215.16
2023-03-29T09:20:31.410Z,101203.13
2023-03-29T09:23:28.507Z,101191.00
2023-03-29T09:26:12.547Z,101188.47
2023-03-29T09:28:55.801Z,101187.00
2023-03-29T09:31:30.833Z,101185.38
2023-03-29T09:34:23.032Z,101186.31
2023-03-29T09:36:54.562Z,101193.34
2023-03-29T09:39:26.023Z,101182.03
2023-03-29T09:42:01.185Z,101170.84
2023-03-29T09:44:36.623Z,101177.13
2023-03-29T09:47:09.306Z,101177.25
2023-03-29T09:49:40.281Z,101171.38
2023-03-29T09:52:13.158Z,101164.47
2023-03-29T09:54:40.273Z,101169.06
2023-03-29T09:57:13.498Z,101134.16
2023-03-29T09:59:40.674Z,101154.78
2023-03-29T10:02:09.846Z,101154.16
2023-03-29T10:04:36.922Z,101163.13
2023-03-29T10:07:06.522Z,101161.59
2023-03-29T10:09:34.337Z,101168.56
2023-03-29T10:12:08.107Z,101153.06
2023-03-29T10:14:43.776Z,101168.88
2023-03-29T10:17:18.501Z,101169.75
2023-03-29T10:19:52.769Z,101157.34
2023-03-29T10:22:24.336Z,101175.94
2023-03-29T10:24:57.260Z,101179.38
2023-03-29T10:27:27.478Z,101178.50
2023-03-29T10:29:58.385Z,101175.09
2023-03-29T10:32:37.047Z,101167.34
2023-03-29T10:35:15.764Z,101157.00
2023-03-29T10:37:45.374Z,101140.34
2023-03-29T10:40:27.549Z,101129.03
2023-03-29T10:43:02.002Z,101127.44
2023-03-29T10:45:31.778Z,101119.69
2023-03-29T10:47:59.395Z,101142.91
2023-03-29T10:50:37.606Z,101129.81
2023-03-29T10:53:14.925Z,101132.84
2023-03-29T10:55:54.679Z,101117.22
2023-03-29T10:58:41.286Z,101135.84
2023-03-29T11:01:15.509Z,101125.44
2023-03-29T11:04:07.976Z,101136.91
2023-03-29T11:06:46.232Z,101104.56
2023-03-29T11:09:57.504Z,101121.41
2023-03-29T11:13:01.670Z,101137.28
2023-03-29T11:15:48.746Z,101140.00
2023-03-29T11:18:52.886Z,101141.88
2023-03-29T11:21:42.608Z,101140.19
2023-03-29T11:24:22.130Z,101143.00
2023-03-29T11:27:23.333Z,101140.66
2023-03-29T11:30:19.945Z,101133.88
2023-03-29T11:33:26.105Z,101143.69
2023-03-29T11:36:53.926Z,101148.91
2023-03-29T11:39:23.649Z,101147.16
2023-03-29T11:41:58.498Z,101126.78
2023-03-29T11:44:30.482Z,101147.75
2023-03-29T11:47:07.377Z,101145.09
2023-03-29T11:49:51.873Z,101111.41
2023-03-29T11:52:28.326Z,101131.88
2023-03-29T11:55:14.505Z,101092.38
2023-03-29T11:57:47.989Z,101117.38
2023-03-29T12:00:23.191Z,101110.44
2023-03-29T12:03:22.045Z,101106.28
2023-03-29T12:05:58.675Z,101107.13
2023-03-29T12:08:37.759Z,101094.13
2023-03-29T12:11:14.179Z,101092.38
2023-03-29T12:13:47.654Z,101090.81
2023-03-29T12:16:29.724Z,101090.75
2023-03-29T12:19:01.467Z,101104.81
2023-03-29T12:21:29.809Z,101096.88
2023-03-29T12:23:58.081Z,101096.03
2023-03-29T12:26:53.110Z,101088.19
2023-03-29T12:29:29.408Z,101075.78
2023-03-29T12:32:32.275Z,101082.78
2023-03-29T12:35:05.220Z,101084.56
2023-03-29T12:38:09.917Z,101074.88
2023-03-29T12:40:43.102Z,101060.63
2023-03-29T12:43:27.315Z,101077.38
2023-03-29T12:46:16.569Z,101073.00
2023-03-29T12:48:46.719Z,101032.44
2023-03-29T12:51:28.900Z,101074.72
2023-03-29T12:54:18.242Z,101048.34
2023-03-29T12:57:00.357Z,101024.56
2023-03-29T12:59:47.046Z,101051.06
2023-03-29T13:02:17.855Z,101046.75
2023-03-29T13:04:57.711Z,101049.41
2023-03-29T13:07:26.496Z,101039.81
2023-03-29T13:09:58.740Z,101045.16
2023-03-29T13:12:42.858Z,101039.16
2023-03-29T13:15:16.841Z,101037.50
2023-03-29T13:17:51.711Z,101018.22
2023-03-29T13:20:37.547Z,101027.22
2023-03-29T13:23:22.941Z,101024.69
2023-03-29T13:26:11.521Z,101007.13
2023-03-29T13:28:41.614Z,101017.78
2023-03-29T13:31:46.782Z,101004.78
2023-03-29T13:34:32.257Z,101009.19
2023-03-29T13:37:53.221Z,101015.25
2023-03-29T13:40:44.630Z,101017.03
2023-03-29T13:43:21.827Z,101009.19
2023-03-29T13:45:57.558Z,100996.06
2023-03-29T13:49:04.046Z,100997.81
2023-03-29T13:51:39.359Z,100999.56
2023-03-29T13:54:26.256Z,100997.81
2023-03-29T13:57:04.983Z,100963.34
2023-03-29T13:59:47.994Z,100999.53
2023-03-29T14:02:32.804Z,100989.94
2023-03-29T14:05:04.460Z,100975.03
2023-03-29T14:07:36.121Z,100975.03
2023-03-29T14:10:03.951Z,100948.75
2023-03-29T14:12:39.518Z,100964.56
2023-03-29T14:15:10.906Z,100969.84
2023-03-29T14:17:38.057Z,100965.38
2023-03-29T14:20:09.710Z,100945.91
2023-03-29T14:22:37.746Z,100965.41
2023-03-29T14:25:17.563Z,100960.19
2023-03-29T14:27:44.476Z,100966.25
2023-03-29T14:30:23.719Z,100953.13
2023-03-29T14:32:51.486Z,100950.53
2023-03-29T14:35:18.866Z,100935.56
2023-03-29T14:37:46.842Z,100947.91
2023-03-29T14:40:19.461Z,100935.53
2023-03-29T14:42:51.295Z,100930.31
2023-03-29T14:45:21.368Z,100918.91
2023-03-29T14:47:49.314Z,100924.34
2023-03-29T14:50:20.098Z,100912.16
2023-03-29T14:52:50.993Z,100901.66
2023-03-29T14:55:23.897Z,100911.38
2023-03-29T14:57:53.271Z,100913.16
2023-03-29T15:00:42.364Z,100912.31
2023-03-29T15:03:16.370Z,100908.78
2023-03-29T15:05:49.191Z,100900.00
2023-03-29T15:08:23.401Z,100887.75
2023-03-29T15:10:50.364Z,100878.88
2023-03-29T15:13:24.773Z,100881.56
2023-03-29T15:16:00.864Z,100884.25
2023-03-29T15:18:35.679Z,100875.44
2023-03-29T15:21:02.879Z,100871.84
2023-03-29T15:23:37.803Z,100866.59
2023-03-29T15:26:30.094Z,100858.78
2023-03-29T15:29:17.520Z,100845.69
2023-03-29T15:31:56.210Z,100846.53
2023-03-29T15:34:28.368Z,100850.09
2023-03-29T15:36:57.312Z,100824.59
2023-03-29T15:39:25.158Z,100829.97
2023-03-29T15:41:53.138Z,100838.78
2023-03-29T15:44:26.962Z,100813.41
2023-03-29T15:46:55.392Z,100794.84
2023-03-29T15:49:22.196Z,100807.25
2023-03-29T15:51:48.966Z,100810.78
2023-03-29T15:54:20.532Z,100805.56
2023-03-29T15:56:55.288Z,100807.34
2023-03-29T15:59:24.559Z,100789.72
2023-03-29T16:01:54.694Z,100795.94
2023-03-29T16:04:22.696Z,100782.66
2023-03-29T16:06:53.665Z,100788.00
2023-03-29T16:09:21.882Z,100795.00
2023-03-29T16:11:49.088Z,100787.09
2023-03-29T16:14:27.817Z,100781.78
2023-03-29T16:16:55.845Z,100774.81
2023-03-29T16:19:25.727Z,100772.16
2023-03-29T16:21:53.309Z,100766.00
2023-03-29T16:24:25.313Z,100767.69
2023-03-29T16:26:58.061Z,100762.41
2023-03-29T16:29:25.703Z,100726.38
2023-03-29T16:31:53.259Z,100743.88
2023-03-29T16:34:22.824Z,100717.50
2023-03-29T16:36:49.834Z,100720.13
2023-03-29T16:39:18.232Z,100713.94
2023-03-29T16:41:48.032Z,100724.38
2023-03-29T16:44:22.440Z,100701.50
2023-03-29T16:46:50.375Z,100717.16
2023-03-29T16:49:18.274Z,100735.38
2023-03-29T16:51:48.367Z,100729.22
2023-03-29T16:54:17.264Z,100724.81
2023-03-29T16:56:43.970Z,100721.31
2023-03-29T16:59:10.789Z,100715.13
2023-03-29T17:01:38.669Z,100690.53
2023-03-29T17:04:05.538Z,100701.06
2023-03-29T17:06:34.505Z,100689.59
2023-03-29T17:09:01.114Z,100679.16
2023-03-29T17:11:28.395Z,100677.28
2023-03-29T17:14:00.229Z,100660.41
2023-03-29T17:16:29.108Z,100689.41
2023-03-29T17:19:06.312Z,100681.34
2023-03-29T17:21:33.102Z,100698.78
2023-03-29T17:23:59.694Z,100675.19
2023-03-29T17:26:26.334Z,100665.50
2023-03-29T17:28:55.406Z,100666.41
2023-03-29T17:31:24.572Z,100660.16
2023-03-29T17:33:53.913Z,100634.66
2023-03-29T17:36:25.057Z,100645.06
2023-03-29T17:38:51.858Z,100634.41
2023-03-29T17:41:19.269Z,100650.25
2023-03-29T17:43:45.948Z,100656.22
2023-03-29T17:46:12.576Z,100658.91
2023-03-29T17:48:39.357Z,100649.19
2023-03-29T17:51:08.708Z,100641.28
2023-03-29T17:53:35.463Z,100692.00
2023-03-29T17:56:02.402Z,100701.53
2023-03-29T17:58:29.191Z,100694.59
2023-03-29T18:00:58.243Z,100674.31
2023-03-29T18:03:29.461Z,100696.31
2023-03-29T18:05:56.652Z,100651.50
2023-03-29T18:08:26.253Z,100689.22
2023-03-29T18:10:52.859Z,100685.59
2023-03-29T18:13:25.320Z,100712.59
2023-03-29T18:15:56.644Z,100695.97
2023-03-29T18:18:25.850Z,100672.34
2023-03-29T18:20:52.492Z,100611.56
2023-03-29T18:23:19.466Z,100669.59
2023-03-29T18:25:46.477Z,100647.56
2023-03-29T18:28:13.166Z,100651.91
2023-03-29T18:30:42.101Z,100644.88
2023-03-29T18:33:08.742Z,100659.69
2023-03-29T18:35:35.825Z,100653.56
2023-03-29T18:38:03.428Z,100630.63
2023-03-29T18:40:30.405Z,100657.00
2023-03-29T18:42:57.096Z,100643.03
2023-03-29T18:45:23.820Z,100630.56
2023-03-29T18:47:50.637Z,100604.31
2023-03-29T18:50:19.708Z,100640.28
2023-03-29T18:52:49.433Z,100631.53
2023-03-29T18:55:16.463Z,100623.56
2023-03-29T18:57:43.136Z,100612.28
2023-03-29T19:00:12.450Z,100597.09
2023-03-29T19:02:42.183Z,100605.84
2023-03-29T19:05:11.802Z,100620.88
2023-03-29T19:07:38.791Z,100611.25
2023-03-29T19:10:06.734Z,100611.22
2023-03-29T19:12:35.893Z,100598.00
2023-03-29T19:15:02.544Z,100600.69
2023-03-29T19:17:29.234Z,100617.41
2023-03-29T19:19:56.863Z,100625.28
2023-03-29T19:22:23.631Z,100626.13
2023-03-29T19:24:50.464Z,100583.03
2023-03-29T19:27:21.643Z,100614.88
2023-03-29T19:29:48.292Z,100603.47
2023-03-29T19:32:15.080Z,100621.94
2023-03-29T19:34:44.025Z,100622.84
2023-03-29T19:37:13.160Z,100626.31
2023-03-29T19:39:41.456Z,100627.19
2023-03-29T19:42:08.183Z,100606.19
2023-03-29T19:44:38.151Z,100625.44
2023-03-29T19:47:09.538Z,100620.22
2023-03-29T19:49:38.916Z,100629.81
2023-03-29T19:52:06.437Z,100620.13
2023-03-29T19:54:35.361Z,100607.84
2023-03-29T19:57:02.806Z,100582.44
2023-03-29T19:59:31.139Z,100624.56
2023-03-29T20:01:57.925Z,100615.00
2023-03-29T20:04:25.481Z,100605.22
2023-03-29T20:06:52.195Z,100596.47
2023-03-29T20:09:18.804Z,100623.69
2023-03-29T20:11:46.857Z,100616.75
2023-03-29T20:14:14.232Z,100615.84
2023-03-29T20:16:42.704Z,100622.75
2023-03-29T20:19:09.837Z,100630.59
2023-03-29T20:21:39.299Z,100622.72
2023-03-29T20:24:06.303Z,100627.94
2023-03-29T20:26:32.928Z,100618.38
2023-03-29T20:29:01.929Z,100625.38
2023-03-29T20:31:31.497Z,100629.75
2023-03-29T20:34:00.390Z,100610.41
2023-03-29T20:36:30.596Z,100628.09
2023-03-29T20:38:59.240Z,100628.06
2023-03-29T20:41:26.320Z,100624.63
2023-03-29T20:43:58.720Z,100620.28
2023-03-29T20:46:35.006Z,100627.28
2023-03-29T20:49:07.454Z,100608.81
2023-03-29T20:51:39.317Z,100615.75
2023-03-29T20:54:07.560Z,100617.66
2023-03-29T20:56:42.398Z,100627.44
2023-03-29T20:59:12.682Z,100621.34
2023-03-29T21:01:40.996Z,100617.00
2023-03-29T21:04:09.239Z,100614.38
2023-03-29T21:06:36.249Z,100626.56
2023-03-29T21:09:04.860Z,100624.81
2023-03-29T21:11:31.990Z,100622.22
2023-03-29T21:13:58.616Z,100609.84
2023-03-29T21:16:25.504Z,100623.91
2023-03-29T21:18:53.329Z,100628.28
2023-03-29T21:21:20.175Z,100603.75
2023-03-29T21:23:46.847Z,100586.94
2023-03-29T21:26:13.615Z,100595.97
2023-03-29T21:28:42.614Z,100598.53
2023-03-29T21:31:11.609Z,100608.25
2023-03-29T21:33:38.374Z,100607.34
2023-03-29T21:36:05.619Z,100593.41
2023-03-29T21:38:34.696Z,100601.25
2023-03-29T21:41:02.808Z,100571.28
2023-03-29T21:43:32.050Z,100585.44
2023-03-29T21:46:01.065Z,100580.09
2023-03-29T21:48:27.747Z,100581.69
2023-03-29T21:50:56.910Z,100599.28
2023-03-29T21:53:24.723Z,100576.56
2023-03-29T21:55:52.105Z,100586.19
2023-03-29T21:58:19.276Z,100585.31
2023-03-29T22:00:47.336Z,100544.06
2023-03-29T22:03:16.005Z,100589.72
2023-03-29T22:05:44.019Z,100575.59
2023-03-29T22:08:15.352Z,100591.38
2023-03-29T22:10:42.053Z,100598.38
2023-03-29T22:13:09.312Z,100571.22
2023-03-29T22:15:39.052Z,100584.34
2023-03-29T22:18:05.838Z,100590.47
2023-03-29T22:20:34.220Z,100597.50
2023-03-29T22:23:03.398Z,100565.91
2023-03-29T22:25:30.302Z,100570.22
2023-03-29T22:28:01.663Z,100585.25
2023-03-29T22:30:28.364Z,100545.72
2023-03-29T22:32:55.049Z,100564.16
2023-03-29T22:35:21.990Z,100580.03
2023-03-29T22:37:48.587Z,100572.25
2023-03-29T22:40:15.583Z,100578.31
2023-03-29T22:42:42.214Z,100554.56
2023-03-29T22:45:16.719Z,100534.25
2023-03-29T22:47:43.355Z,100569.59
2023-03-29T22:50:10.839Z,100573.91
2023-03-29T22:52:37.588Z,100580.84
2023-03-29T22:55:07.546Z,100579.06
2023-03-29T22:57:34.248Z,100572.94
2023-03-29T23:00:00.887Z,100530.88
2023-03-29T23:02:27.539Z,100537.75
2023-03-29T23:04:54.249Z,100570.34
2023-03-29T23:07:20.853Z,100537.66
2023-03-29T23:09:50.644Z,100552.84
2023-03-29T23:12:17.850Z,100551.13
2023-03-29T23:14:45.213Z,100538.09
2023-03-29T23:17:12.745Z,100520.41
2023-03-29T23:19:39.328Z,100540.66
2023-03-29T23:22:08.694Z,100534.56
2023-03-29T23:24:35.338Z,100523.94
2023-03-29T23:27:03.050Z,100508.81
2023-03-29T23:29:32.145Z,100536.09
2023-03-29T23:31:59.701Z,100505.38
2023-03-29T23:34:26.480Z,100530.78
2023-03-29T23:36:53.116Z,100529.91
2023-03-29T23:39:19.864Z,100519.41
2023-03-29T23:41:46.467Z,100515.91
2023-03-29T23:44:13.072Z,100517.63
2023-03-29T23:46:42.262Z,100490.31
2023-03-29T23:49:10.002Z,100515.84
2023-03-29T23:51:42.611Z,100497.34
2023-03-29T23:54:12.055Z,100485.91
2023-03-29T23:56:39.004Z,100518.47
2023-03-29T23:59:05.693Z,100525.38
